Time;durP1;ratioP1;P1;durP2;ratioP2;P2;SDS_P1;SDS_P2;PMS_P1;PMS_P2;Temp;Humidity;BMP_temperature;BMP_pressure;BME280_temperature;BME280_humidity;BME280_pressure;Samples;Min_cycle;Max_cycle;Signal;HPM_P1;HPM_P2
2022/09/10 00:00:37;;;;;;;;;1.50;1.00;;;;;20.14;72.17;156136.00;4996992;27;45319;-73
2022/09/10 00:03:03;;;;;;;;;2.00;2.00;;;;;20.18;72.87;156145.25;4972804;28;45490;-73
2022/09/10 00:05:29;;;;;;;;;1.00;1.00;;;;;20.11;72.87;156126.69;4989803;27;45588;-73
2022/09/10 00:07:54;;;;;;;;;0.67;0.67;;;;;20.19;72.38;156147.91;4993531;28;45575;-72
2022/09/10 00:10:20;;;;;;;;;3.00;1.00;;;;;20.14;72.50;156136.00;4993468;27;46031;-72
2022/09/10 00:12:50;;;;;;;;;5.00;2.00;;;;;20.18;72.48;156146.59;4987609;28;45447;-73
2022/09/10 00:15:16;;;;;;;;;1.33;1.33;;;;;20.12;72.26;156129.38;4986636;28;45391;-72
2022/09/10 00:17:42;;;;;;;;;0.00;0.00;;;;;20.06;72.44;156114.78;4996407;27;47217;-72
2022/09/10 00:20:08;;;;;;;;;0.00;0.00;;;;;20.08;72.31;156118.75;4984037;27;45371;-73
2022/09/10 00:22:33;;;;;;;;;1.00;1.00;;;;;20.03;72.20;156106.84;4990811;27;45601;-73
2022/09/10 00:24:58;;;;;;;;;2.33;1.00;;;;;20.12;72.40;156129.38;4991968;28;45451;-73
2022/09/10 00:27:25;;;;;;;;;2.00;1.00;;;;;20.12;72.57;156129.38;4993122;27;47013;-72
2022/09/10 00:29:52;;;;;;;;;1.00;1.00;;;;;20.12;72.78;156130.69;4991756;28;45379;-72
2022/09/10 00:32:18;;;;;;;;;0.75;0.75;;;;;20.16;72.54;156140.00;4994636;27;45365;-72
2022/09/10 00:34:44;;;;;;;;;1.00;1.00;;;;;20.13;72.23;156132.00;4999592;27;45491;-73
2022/09/10 00:37:09;;;;;;;;;2.00;2.00;;;;;20.29;72.65;156173.09;4994678;27;46306;-72
2022/09/10 00:39:34;;;;;;;;;2.00;1.00;;;;;19.68;73.26;156015.38;4996133;27;45368;-72
2022/09/10 00:42:00;;;;;;;;;1.75;1.75;;;;;19.48;74.28;155963.69;4996354;27;45456;-72
2022/09/10 00:44:40;;;;;;;;;0.50;0.00;;;;;19.89;74.40;156069.75;4997473;27;45483;-72
2022/09/10 00:47:18;;;;;;;;;1.67;1.67;;;;;19.44;74.92;155953.13;4995203;27;47067;-72
2022/09/10 00:49:59;;;;;;;;;2.33;2.00;;;;;19.40;75.07;155945.16;4999177;27;45405;-72
2022/09/10 00:52:26;;;;;;;;;0.00;0.00;;;;;19.43;74.67;155950.47;5040363;27;45482;-72
2022/09/10 00:54:52;;;;;;;;;2.00;0.50;;;;;19.35;74.78;155930.63;4994886;27;45364;-72
2022/09/10 00:57:20;;;;;;;;;2.25;0.75;;;;;20.09;73.26;156122.75;4995834;27;45339;-72
2022/09/10 00:59:50;;;;;;;;;1.00;0.50;;;;;20.18;72.50;156145.25;4996005;27;45322;-72
2022/09/10 01:02:16;;;;;;;;;3.50;2.00;;;;;20.08;72.44;156118.75;4994510;28;45415;-72
2022/09/10 01:04:42;;;;;;;;;1.75;1.00;;;;;19.57;74.02;155987.53;4996030;27;45333;-71
2022/09/10 01:07:10;;;;;;;;;1.50;0.25;;;;;20.03;73.42;156106.84;4996792;27;46257;-72
2022/09/10 01:09:37;;;;;;;;;1.25;1.00;;;;;19.33;74.62;155926.63;4995684;27;45632;-72
2022/09/10 01:12:20;;;;;;;;;5.00;2.00;;;;;20.02;72.81;156104.22;4978231;28;45377;-73
2022/09/10 01:15:12;;;;;;;;;2.00;1.00;;;;;20.09;72.94;156122.75;4995939;28;45608;-72
2022/09/10 01:17:56;;;;;;;;;1.67;0.33;;;;;20.13;72.69;156132.00;4995488;27;46487;-73
2022/09/10 01:20:39;;;;;;;;;1.25;1.25;;;;;20.11;72.38;156128.06;4995748;27;45373;-72
2022/09/10 01:23:26;;;;;;;;;0.00;0.00;;;;;20.09;72.36;156121.38;4982776;27;45407;-72
2022/09/10 01:26:15;;;;;;;;;0.75;0.75;;;;;20.10;72.84;156124.06;4999888;27;45431;-72
2022/09/10 01:29:28;;;;;;;;;1.00;1.00;;;;;20.11;72.52;156126.69;4994150;27;47333;-72
2022/09/10 01:32:14;;;;;;;;;0.75;0.75;;;;;20.09;72.76;156122.75;4984489;28;45438;-72
2022/09/10 01:34:53;;;;;;;;;0.75;0.75;;;;;20.08;72.28;156118.75;4977848;27;45487;-72
2022/09/10 01:37:27;;;;;;;;;3.67;0.67;;;;;19.72;72.28;156027.34;4995869;27;45480;-72
2022/09/10 01:39:54;;;;;;;;;3.00;1.75;;;;;19.48;73.20;155965.06;4995397;27;46429;-73
2022/09/10 01:42:25;;;;;;;;;1.00;1.00;;;;;19.88;73.77;156068.44;4998320;27;45458;-72
2022/09/10 01:44:51;;;;;;;;;3.25;3.25;;;;;20.12;73.01;156130.69;4995587;27;45326;-73
2022/09/10 01:47:51;;;;;;;;;1.00;1.00;;;;;20.11;72.58;156128.06;5021808;28;45519;-73
2022/09/10 01:50:29;;;;;;;;;1.00;1.00;;;;;20.11;72.83;156126.69;4995484;27;46208;-73
2022/09/10 01:53:00;;;;;;;;;2.00;0.00;;;;;19.47;74.54;155961.06;4988731;28;45388;-72
2022/09/10 01:55:48;;;;;;;;;0.00;0.00;;;;;19.35;75.62;155931.94;4981816;27;45701;-72
2022/09/10 01:58:29;;;;;;;;;0.50;0.00;;;;;19.33;75.53;155926.63;5014288;27;45368;-73
2022/09/10 02:01:04;;;;;;;;;2.33;1.00;;;;;19.18;75.88;155888.25;4994987;27;46156;-73
2022/09/10 02:03:31;;;;;;;;;1.00;1.00;;;;;19.30;75.80;155918.69;4994866;27;45326;-72
2022/09/10 02:05:59;;;;;;;;;2.33;1.00;;;;;19.37;76.13;155937.22;4995383;27;45439;-73
2022/09/10 02:08:32;;;;;;;;;2.00;1.00;;;;;19.19;76.17;155889.56;4995368;27;45266;-72
2022/09/10 02:11:08;;;;;;;;;2.00;1.00;;;;;19.26;75.98;155906.78;4994700;27;46104;-72
2022/09/10 02:13:34;;;;;;;;;3.00;1.00;;;;;19.26;76.27;155908.09;4994684;27;45363;-72
2022/09/10 02:16:02;;;;;;;;;1.00;0.33;;;;;19.19;76.05;155889.56;4998212;27;45476;-73
2022/09/10 02:18:31;;;;;;;;;2.00;0.75;;;;;19.90;74.73;156072.38;4995474;28;45505;-73
2022/09/10 02:20:58;;;;;;;;;1.00;1.00;;;;;19.28;75.13;155912.06;4994943;27;46249;-73
2022/09/10 02:23:32;;;;;;;;;1.00;0.00;;;;;19.87;74.76;156065.75;4995102;28;45474;-73
2022/09/10 02:25:57;;;;;;;;;2.00;0.00;;;;;19.97;73.78;156090.91;4995095;27;45373;-74
2022/09/10 02:28:23;;;;;;;;;3.00;1.33;;;;;19.46;74.53;155959.75;4993520;27;45356;-73
2022/09/10 02:30:48;;;;;;;;;1.00;1.00;;;;;19.88;73.84;156068.44;4994621;27;46053;-73
2022/09/10 02:33:17;;;;;;;;;1.33;1.33;;;;;19.77;74.00;156040.59;4997628;27;45348;-73
2022/09/10 02:35:43;;;;;;;;;2.00;2.00;;;;;19.85;73.95;156060.44;4994775;27;45317;-73
2022/09/10 02:38:09;;;;;;;;;1.00;1.00;;;;;19.93;73.94;156080.34;4995188;27;45346;-73
2022/09/10 02:40:34;;;;;;;;;2.00;2.00;;;;;19.92;74.11;156079.00;4994502;28;47100;-72
2022/09/10 02:42:59;;;;;;;;;3.00;2.00;;;;;19.86;74.12;156061.81;4994292;27;45660;-73
2022/09/10 02:45:25;;;;;;;;;1.00;1.00;;;;;19.84;74.20;156057.81;4994440;27;48369;-73
2022/09/10 02:47:51;;;;;;;;;0.00;0.00;;;;;19.87;74.20;156064.44;4995567;27;45581;-73
2022/09/10 02:50:17;;;;;;;;;4.00;2.00;;;;;19.88;73.81;156068.44;4997508;27;47087;-74
2022/09/10 02:52:44;;;;;;;;;1.00;1.00;;;;;19.87;73.96;156064.44;5057682;27;45454;-73
2022/09/10 02:55:11;;;;;;;;;2.00;1.00;;;;;19.79;74.12;156045.91;4978227;28;45378;-73
2022/09/10 02:57:38;;;;;;;;;1.00;1.00;;;;;19.71;74.40;156023.38;4975731;28;45488;-73
2022/09/10 03:00:05;;;;;;;;;2.33;1.00;;;;;19.83;74.01;156055.19;4994229;27;45530;-73
2022/09/10 03:02:30;;;;;;;;;1.00;1.00;;;;;19.79;74.37;156045.91;4991395;27;45630;-73
2022/09/10 03:04:56;;;;;;;;;2.00;1.00;;;;;19.85;74.37;156060.44;4991363;28;45378;-72
2022/09/10 03:07:21;;;;;;;;;1.67;1.67;;;;;19.85;74.55;156060.44;4987044;27;45417;-73
2022/09/10 03:09:46;;;;;;;;;6.67;2.33;;;;;19.82;74.89;156053.81;4975672;28;46192;-73
2022/09/10 03:12:14;;;;;;;;;2.00;1.33;;;;;19.74;74.58;156032.66;4975663;27;45496;-73
2022/09/10 03:14:40;;;;;;;;;2.00;0.50;;;;;19.84;74.58;156057.81;4974400;28;45797;-73
2022/09/10 03:17:05;;;;;;;;;2.75;1.00;;;;;19.87;74.14;156065.75;4974763;28;45437;-73
2022/09/10 03:19:31;;;;;;;;;1.67;1.67;;;;;19.87;74.51;156064.44;4974643;27;45913;-73
2022/09/10 03:21:56;;;;;;;;;1.33;1.00;;;;;19.89;74.55;156071.06;4974387;28;45499;-73
2022/09/10 03:24:21;;;;;;;;;3.00;1.33;;;;;19.87;74.46;156065.75;4968768;28;45650;-74
2022/09/10 03:26:47;;;;;;;;;3.00;1.33;;;;;19.90;74.26;156072.38;4974868;28;45295;-73
2022/09/10 03:29:14;;;;;;;;;0.75;0.50;;;;;19.91;74.28;156076.38;4986908;27;46616;-73
2022/09/10 03:31:39;;;;;;;;;1.75;1.75;;;;;19.89;73.95;156071.06;4993994;28;45396;-73
2022/09/10 03:34:05;;;;;;;;;0.75;0.00;;;;;19.92;74.34;156079.00;4994133;28;45342;-73
2022/09/10 03:36:30;;;;;;;;;0.75;0.75;;;;;19.92;73.88;156079.00;4994103;28;45309;-73
2022/09/10 03:38:57;;;;;;;;;3.00;1.33;;;;;19.87;74.26;156065.75;4972896;28;48398;-73
2022/09/10 03:41:23;;;;;;;;;1.75;0.00;;;;;19.94;73.78;156082.97;4975875;27;45242;-73
2022/09/10 03:43:48;;;;;;;;;0.33;0.33;;;;;19.94;73.93;156082.97;4993747;27;45468;-73
2022/09/10 03:46:14;;;;;;;;;0.33;0.33;;;;;19.86;74.16;156063.13;4994196;27;45307;-73
2022/09/10 03:48:42;;;;;;;;;1.00;1.00;;;;;19.99;73.67;156097.59;4973018;28;45511;-73
2022/09/10 03:51:09;;;;;;;;;3.00;1.00;;;;;20.01;73.74;156101.53;4998291;27;45496;-73
2022/09/10 03:53:35;;;;;;;;;1.00;1.00;;;;;19.95;73.78;156086.97;4998337;27;45416;-73
2022/09/10 03:56:02;;;;;;;;;1.00;1.00;;;;;19.96;73.87;156089.59;4993704;28;45447;-73
2022/09/10 03:58:27;;;;;;;;;1.00;0.00;;;;;20.03;73.96;156108.16;4996926;27;46297;-73
2022/09/10 04:00:52;;;;;;;;;2.00;2.00;;;;;20.03;73.50;156108.16;4993786;28;45465;-73
2022/09/10 04:03:19;;;;;;;;;2.67;1.00;;;;;20.01;73.91;156102.84;4993723;27;45349;-73
2022/09/10 04:05:45;;;;;;;;;1.00;1.00;;;;;20.05;73.45;156110.81;4994619;28;45495;-73
2022/09/10 04:08:12;;;;;;;;;3.00;1.00;;;;;20.03;73.75;156106.84;4996121;27;47517;-73
2022/09/10 04:10:39;;;;;;;;;1.67;1.00;;;;;20.05;73.74;156110.81;4996270;27;45493;-73
2022/09/10 04:13:05;;;;;;;;;3.00;1.00;;;;;19.92;73.46;156079.00;4996386;27;45356;-73
2022/09/10 04:15:30;;;;;;;;;1.00;1.00;;;;;20.03;73.84;156106.84;4999952;27;45502;-73
2022/09/10 04:17:55;;;;;;;;;2.33;1.00;;;;;20.01;73.51;156101.53;4975557;28;46150;-72
2022/09/10 04:20:22;;;;;;;;;0.50;0.50;;;;;20.01;73.89;156102.84;4991812;27;45312;-72
2022/09/10 04:22:48;;;;;;;;;3.33;2.00;;;;;19.90;73.69;156073.75;4996696;27;45405;-73
2022/09/10 04:25:14;;;;;;;;;1.50;1.50;;;;;19.89;73.59;156071.06;4997991;27;45359;-73
2022/09/10 04:27:41;;;;;;;;;2.00;2.00;;;;;19.95;73.72;156085.66;4994377;27;45368;-73
2022/09/10 04:30:07;;;;;;;;;2.00;1.00;;;;;19.94;74.06;156082.97;5016785;28;45387;-73
2022/09/10 04:32:33;;;;;;;;;2.00;2.00;;;;;19.92;73.68;156079.00;4996043;27;45429;-73
2022/09/10 04:35:01;;;;;;;;;2.00;1.00;;;;;19.90;73.88;156073.75;4996350;27;45534;-73
2022/09/10 04:37:27;;;;;;;;;2.00;2.00;;;;;19.86;73.97;156063.13;4995172;28;47511;-74
2022/09/10 04:39:53;;;;;;;;;2.00;2.00;;;;;19.95;73.69;156086.97;4974837;28;45604;-73
2022/09/10 04:42:19;;;;;;;;;1.33;1.00;;;;;19.98;73.60;156093.59;4986311;27;45460;-72
2022/09/10 04:44:48;;;;;;;;;2.00;0.33;;;;;20.01;73.57;156102.84;5046574;27;45430;-73
2022/09/10 04:47:14;;;;;;;;;0.00;0.00;;;;;19.97;73.43;156092.28;4995833;27;46288;-73
2022/09/10 04:49:39;;;;;;;;;2.33;1.67;;;;;19.92;73.56;156079.00;4999336;27;45439;-73
2022/09/10 04:52:04;;;;;;;;;1.00;1.00;;;;;19.91;73.80;156075.06;5018873;27;45482;-72
2022/09/10 04:54:32;;;;;;;;;5.00;2.00;;;;;19.95;73.63;156086.97;4995184;27;45417;-73
2022/09/10 04:56:58;;;;;;;;;3.00;2.33;;;;;19.95;73.98;156086.97;4995452;27;45983;-73
2022/09/10 04:59:24;;;;;;;;;1.67;1.00;;;;;19.85;73.68;156059.13;4978454;28;45378;-73
2022/09/10 05:01:49;;;;;;;;;1.00;1.00;;;;;19.95;73.53;156086.97;4996116;27;45266;-74
2022/09/10 05:04:15;;;;;;;;;2.00;1.00;;;;;19.94;73.50;156084.28;4975511;28;45383;-73
2022/09/10 05:06:41;;;;;;;;;2.00;1.67;;;;;19.87;73.81;156064.44;4976912;27;45547;-73
2022/09/10 05:09:07;;;;;;;;;3.00;1.00;;;;;19.94;73.78;156084.28;4996018;28;45837;-73
2022/09/10 05:11:32;;;;;;;;;1.00;1.00;;;;;19.94;73.87;156082.97;4995853;27;45361;-74
2022/09/10 05:13:57;;;;;;;;;1.00;1.00;;;;;19.93;73.71;156080.34;4975301;28;45325;-74
2022/09/10 05:16:23;;;;;;;;;1.00;1.00;;;;;19.94;73.34;156082.97;4986201;27;51647;-73
2022/09/10 05:18:48;;;;;;;;;1.00;1.00;;;;;19.91;74.14;156076.38;5017606;27;45359;-73
2022/09/10 05:21:14;;;;;;;;;3.33;2.00;;;;;19.88;73.77;156068.44;4981243;28;45363;-74
2022/09/10 05:23:40;;;;;;;;;0.33;0.00;;;;;19.93;74.16;156081.66;4978965;27;45401;-74
2022/09/10 05:26:06;;;;;;;;;1.00;1.00;;;;;19.93;73.81;156080.34;4995165;27;47235;-73
2022/09/10 05:28:31;;;;;;;;;2.50;2.25;;;;;19.95;73.85;156086.97;4993269;27;45424;-74
2022/09/10 05:30:56;;;;;;;;;3.00;3.00;;;;;19.93;73.69;156081.66;4995508;27;45716;-74
2022/09/10 05:33:22;;;;;;;;;1.33;1.33;;;;;19.93;73.85;156080.34;4982774;27;45318;-73
2022/09/10 05:35:50;;;;;;;;;2.67;1.00;;;;;19.93;73.81;156080.34;4974486;28;46673;-73
2022/09/10 05:38:16;;;;;;;;;1.33;1.33;;;;;19.89;73.72;156069.75;4994411;27;45543;-73
2022/09/10 05:40:41;;;;;;;;;1.67;1.00;;;;;19.86;73.60;156063.13;4978042;28;45382;-72
2022/09/10 05:43:07;;;;;;;;;2.00;1.00;;;;;19.93;73.55;156081.66;4992826;27;45436;-72
2022/09/10 05:45:32;;;;;;;;;1.00;1.00;;;;;19.90;73.41;156073.75;4995373;27;45963;-72
2022/09/10 05:47:58;;;;;;;;;1.00;1.00;;;;;19.89;73.90;156071.06;4961756;27;45378;-72
2022/09/10 05:50:24;;;;;;;;;0.25;0.25;;;;;20.03;73.79;156106.84;4995605;27;45648;-72
2022/09/10 05:52:50;;;;;;;;;2.00;2.00;;;;;19.92;73.56;156079.00;4995831;27;45400;-72
2022/09/10 05:55:15;;;;;;;;;5.00;2.00;;;;;19.95;73.89;156086.97;4993494;27;46001;-72
2022/09/10 05:57:40;;;;;;;;;2.00;1.00;;;;;20.08;73.58;156118.75;5020352;27;45954;-72
2022/09/10 06:00:08;;;;;;;;;1.00;1.00;;;;;20.07;73.45;156117.44;5033227;27;45548;-73
2022/09/10 06:02:33;;;;;;;;;1.33;1.00;;;;;20.03;73.69;156108.16;5011311;28;45411;-72
2022/09/10 06:04:59;;;;;;;;;2.33;1.00;;;;;20.12;73.17;156130.69;4986422;28;46976;-73
2022/09/10 06:07:27;;;;;;;;;1.00;1.00;;;;;20.03;73.33;156106.84;4994508;27;45760;-74
2022/09/10 06:09:53;;;;;;;;;1.25;0.50;;;;;19.91;73.16;156075.06;4987134;27;45522;-73
2022/09/10 06:12:18;;;;;;;;;1.00;1.00;;;;;20.09;73.53;156122.75;5035827;27;45481;-74
2022/09/10 06:14:43;;;;;;;;;1.00;1.00;;;;;20.21;73.20;156153.22;5013793;28;46542;-73
2022/09/10 06:17:09;;;;;;;;;2.00;2.00;;;;;20.21;73.29;156153.22;5020445;27;45475;-73
2022/09/10 06:19:34;;;;;;;;;3.00;1.67;;;;;20.18;73.41;156146.59;4988576;27;45510;-73
2022/09/10 06:21:59;;;;;;;;;2.00;2.00;;;;;20.21;73.12;156154.53;5008188;27;46534;-73
2022/09/10 06:24:25;;;;;;;;;1.67;1.33;;;;;20.22;73.01;156155.84;5024536;27;46332;-73
2022/09/10 06:26:50;;;;;;;;;4.33;2.00;;;;;20.22;73.14;156155.84;4995612;27;45544;-73
2022/09/10 06:29:18;;;;;;;;;1.67;1.00;;;;;20.23;73.34;156158.53;4980056;27;45599;-73
2022/09/10 06:31:44;;;;;;;;;1.00;1.00;;;;;20.27;72.97;156169.09;5004157;27;45565;-74
2022/09/10 06:34:10;;;;;;;;;2.00;2.00;;;;;20.24;72.94;156162.47;5010638;28;45481;-73
2022/09/10 06:36:35;;;;;;;;;2.33;1.00;;;;;20.31;73.28;156178.41;5003738;27;45633;-74
2022/09/10 06:39:02;;;;;;;;;2.00;0.33;;;;;20.38;72.63;156196.94;5001737;28;45381;-73
2022/09/10 06:41:29;;;;;;;;;0.00;0.00;;;;;20.42;73.01;156207.56;4998751;27;45388;-74
2022/09/10 06:43:55;;;;;;;;;1.00;1.00;;;;;20.46;72.68;156218.13;5002547;27;47013;-72
2022/09/10 06:46:20;;;;;;;;;1.33;1.33;;;;;20.31;72.69;156179.72;5008790;28;45475;-71
2022/09/10 06:48:47;;;;;;;;;1.00;1.00;;;;;20.03;73.29;156106.84;5040487;27;45405;-73
2022/09/10 06:51:13;;;;;;;;;1.00;1.00;;;;;20.21;73.03;156153.22;5002740;27;45411;-73
2022/09/10 06:53:40;;;;;;;;;1.00;1.00;;;;;20.28;73.20;156170.47;4994407;27;46276;-72
2022/09/10 06:56:08;;;;;;;;;2.00;1.33;;;;;20.28;73.03;156171.78;5004252;27;45360;-72
2022/09/10 06:58:34;;;;;;;;;2.00;0.67;;;;;20.33;72.78;156185.03;5005158;27;45459;-72
2022/09/10 07:01:25;;;;;;;;;4.33;1.00;;;;;20.33;73.17;156185.03;5002625;27;45452;-72
2022/09/10 07:03:55;;;;;;;;;3.00;0.00;;;;;20.35;73.02;156190.31;5007756;27;45525;-72
2022/09/10 07:06:22;;;;;;;;;2.00;2.00;;;;;20.36;72.66;156192.94;5005656;27;45455;-72
2022/09/10 07:08:47;;;;;;;;;1.00;1.00;;;;;20.38;73.10;156196.94;5007003;27;45408;-72
2022/09/10 07:11:14;;;;;;;;;2.33;1.00;;;;;20.35;72.74;156189.00;5006055;28;45660;-72
2022/09/10 07:13:41;;;;;;;;;1.00;1.00;;;;;20.50;72.78;156227.44;4978304;28;47161;-72
2022/09/10 07:16:08;;;;;;;;;2.67;1.67;;;;;20.48;72.91;156223.44;4994184;27;45441;-72
2022/09/10 07:18:33;;;;;;;;;1.00;1.00;;;;;20.53;72.54;156236.69;4994391;27;45373;-73
2022/09/10 07:21:11;;;;;;;;;1.00;1.00;;;;;20.49;72.80;156224.81;4997839;27;45351;-73
2022/09/10 07:23:40;;;;;;;;;0.33;0.33;;;;;20.60;72.68;156255.34;4994158;27;46239;-72
2022/09/10 07:26:10;;;;;;;;;2.00;1.00;;;;;20.55;72.27;156240.69;4994268;27;45374;-73
2022/09/10 07:28:37;;;;;;;;;1.33;1.33;;;;;20.64;72.30;156264.59;4991296;27;45390;-72
2022/09/10 07:31:26;;;;;;;;;1.00;1.00;;;;;20.53;72.19;156236.69;4988492;27;45500;-73
2022/09/10 07:33:53;;;;;;;;;1.75;1.00;;;;;20.63;71.98;156263.28;4967414;28;48357;-73
2022/09/10 07:36:19;;;;;;;;;2.00;2.00;;;;;20.64;72.65;156264.59;4993638;28;45443;-73
2022/09/10 07:38:45;;;;;;;;;3.00;1.00;;;;;20.63;72.11;156261.97;4998146;27;45433;-78
2022/09/10 07:41:13;;;;;;;;;2.25;1.25;;;;;20.64;72.05;156264.59;4991202;27;45528;-80
2022/09/10 07:43:42;;;;;;;;;1.00;1.00;;;;;20.66;72.77;156271.22;5008084;27;46744;-78
2022/09/10 07:46:19;;;;;;;;;2.00;2.00;;;;;20.71;72.52;156281.81;4986269;27;45616;-78
2022/09/10 07:48:47;;;;;;;;;2.00;2.00;;;;;20.76;72.25;156295.06;4975944;28;45263;-77
2022/09/10 07:51:16;;;;;;;;;1.25;1.25;;;;;20.83;71.97;156314.94;4993974;27;45476;-77
2022/09/10 07:53:43;;;;;;;;;3.00;2.00;;;;;20.90;72.38;156332.19;4993020;28;46163;-75
2022/09/10 07:56:09;;;;;;;;;2.33;2.00;;;;;20.94;71.78;156341.50;4993799;28;45374;-78
2022/09/10 07:58:36;;;;;;;;;2.00;1.00;;;;;20.79;72.00;156304.38;4994064;28;45584;-73
2022/09/10 08:01:06;;;;;;;;;0.25;0.25;;;;;20.94;72.28;156342.81;4994137;27;45678;-79
2022/09/10 08:03:31;;;;;;;;;0.75;0.75;;;;;20.99;72.08;156354.72;4993386;27;45571;-76
2022/09/10 08:06:03;;;;;;;;;1.50;1.00;;;;;20.98;71.42;156353.41;4993521;28;45448;-78
2022/09/10 08:08:30;;;;;;;;;2.00;2.00;;;;;21.08;71.11;156379.91;4993698;28;45391;-74
2022/09/10 08:11:10;;;;;;;;;1.00;1.00;;;;;21.18;71.58;156405.09;4995166;28;45493;-74
2022/09/10 08:13:36;;;;;;;;;1.00;1.00;;;;;21.16;71.71;156399.78;5003036;27;46231;-78
2022/09/10 08:16:11;;;;;;;;;1.00;1.00;;;;;21.19;71.06;156407.78;5056359;27;45455;-77
2022/09/10 08:18:37;;;;;;;;;1.25;1.00;;;;;21.16;71.55;156399.78;4993372;28;45284;-73
2022/09/10 08:21:04;;;;;;;;;1.00;0.00;;;;;21.20;71.62;156409.09;5013373;27;46534;-74
2022/09/10 08:23:30;;;;;;;;;1.00;1.00;;;;;21.21;71.73;156411.72;4985053;28;45993;-74
2022/09/10 08:25:57;;;;;;;;;1.75;1.75;;;;;21.21;71.90;156413.09;4996091;27;45337;-74
2022/09/10 08:28:23;;;;;;;;;1.00;1.00;;;;;21.34;71.88;156446.22;5001314;27;45831;-74
2022/09/10 08:31:18;;;;;;;;;2.00;0.75;;;;;21.40;71.92;156460.84;4987786;27;45535;-73
2022/09/10 08:33:49;;;;;;;;;2.50;0.75;;;;;21.45;71.04;156474.13;5006172;27;46320;-73
2022/09/10 08:36:15;;;;;;;;;3.00;1.25;;;;;21.41;70.63;156464.84;5002037;27;45422;-74
2022/09/10 08:38:42;;;;;;;;;1.00;1.00;;;;;21.47;71.50;156479.44;4973103;28;45596;-74
2022/09/10 08:41:31;;;;;;;;;2.00;2.00;;;;;21.49;71.07;156484.72;4976944;27;45494;-74
2022/09/10 08:44:08;;;;;;;;;1.75;1.00;;;;;21.50;70.66;156487.41;4976537;28;46848;-74
2022/09/10 08:47:03;;;;;;;;;1.00;1.00;;;;;21.45;71.67;156474.13;4982355;27;45464;-74
2022/09/10 08:49:47;;;;;;;;;0.25;0.25;;;;;21.47;71.59;156480.78;4982902;28;45444;-74
2022/09/10 08:52:33;;;;;;;;;3.75;2.00;;;;;21.43;71.60;156470.16;4977550;28;45244;-74
2022/09/10 08:55:18;;;;;;;;;2.50;1.25;;;;;21.31;71.69;156438.28;4997245;28;46346;-79
2022/09/10 08:58:10;;;;;;;;;2.00;2.00;;;;;21.35;72.61;156448.84;4975490;28;45504;-91
2022/09/10 09:00:41;;;;;;;;;0.25;0.25;;;;;21.31;72.38;156438.28;4995854;27;45519;-84
2022/09/10 09:03:41;;;;;;;;;2.00;2.00;;;;;21.22;72.62;156414.41;4997957;27;45768;-90
2022/09/10 09:06:35;;;;;;;;;2.00;2.00;;;;;21.06;73.21;156374.59;5038911;28;46145;-78
2022/09/10 09:09:03;;;;;;;;;2.75;1.00;;;;;21.17;74.33;156402.47;5011943;28;45556;-72
2022/09/10 09:11:44;;;;;;;;;0.00;0.00;;;;;21.04;74.13;156367.97;5028562;28;45619;-71
2022/09/10 09:14:35;;;;;;;;;1.00;1.00;;;;;21.06;74.73;156373.28;5023515;28;45536;-73
2022/09/10 09:17:14;;;;;;;;;1.75;1.00;;;;;21.08;75.08;156379.91;5011433;28;45617;-74
2022/09/10 09:19:48;;;;;;;;;1.00;1.00;;;;;21.06;74.60;156373.28;5011166;28;45480;-75
2022/09/10 09:22:28;;;;;;;;;0.75;0.75;;;;;21.00;75.68;156358.72;5008412;28;45398;-73
2022/09/10 09:25:12;;;;;;;;;1.50;1.00;;;;;20.96;75.72;156348.13;5008863;28;46745;-74
2022/09/10 09:27:41;;;;;;;;;0.75;0.75;;;;;21.03;75.49;156365.34;5010721;28;46588;-75
2022/09/10 09:30:16;;;;;;;;;1.00;1.00;;;;;20.96;75.54;156346.78;5013805;28;45881;-73
2022/09/10 09:32:45;;;;;;;;;1.25;1.25;;;;;21.05;74.92;156371.97;4993992;28;45482;-71
2022/09/10 09:35:29;;;;;;;;;0.50;0.50;;;;;21.11;75.43;156385.22;4999638;28;45432;-71
2022/09/10 09:38:43;;;;;;;;;0.33;0.33;;;;;21.11;75.14;156385.22;5011040;28;45511;-74
2022/09/10 09:41:29;;;;;;;;;1.50;1.50;;;;;21.14;75.49;156393.16;4996484;28;45584;-73
2022/09/10 09:44:17;;;;;;;;;1.00;1.00;;;;;21.15;75.63;156395.84;4953657;28;45544;-72
2022/09/10 09:46:42;;;;;;;;;2.00;2.00;;;;;21.21;75.84;156411.72;4953972;28;45469;-71
2022/09/10 09:49:14;;;;;;;;;1.00;1.00;;;;;21.24;75.85;156421.03;4953965;28;46469;-70
2022/09/10 09:51:41;;;;;;;;;2.50;2.00;;;;;21.26;75.41;156425.03;4951410;28;45471;-70
2022/09/10 09:54:14;;;;;;;;;2.00;2.00;;;;;21.31;75.27;156436.97;4990183;27;45475;-70
2022/09/10 09:56:50;;;;;;;;;3.00;1.00;;;;;21.33;75.17;156442.22;4995564;27;45572;-70
2022/09/10 09:59:35;;;;;;;;;2.00;0.75;;;;;21.35;74.59;156447.53;4995136;27;47097;-70
2022/09/10 10:02:11;;;;;;;;;1.50;1.25;;;;;21.39;74.69;156458.16;5004214;27;45365;-69
2022/09/10 10:04:40;;;;;;;;;2.25;1.00;;;;;21.37;74.70;156452.84;4992875;28;45579;-69
2022/09/10 10:07:06;;;;;;;;;3.00;2.00;;;;;21.37;74.75;156454.16;4992003;28;45491;-70
2022/09/10 10:09:42;;;;;;;;;2.50;2.50;;;;;21.25;74.47;156422.34;4975075;28;45534;-70
2022/09/10 10:12:18;;;;;;;;;1.00;1.00;;;;;21.32;74.79;156440.91;4997977;27;45565;-71
2022/09/10 10:14:44;;;;;;;;;1.50;1.00;;;;;21.26;74.10;156425.03;5042749;27;45503;-72
2022/09/10 10:17:32;;;;;;;;;1.25;1.00;;;;;21.12;74.33;156387.84;5006744;27;45541;-71
2022/09/10 10:20:05;;;;;;;;;3.67;2.00;;;;;21.25;74.88;156422.34;4997856;27;46705;-75
2022/09/10 10:22:31;;;;;;;;;3.00;1.25;;;;;21.23;75.19;156417.03;5010448;27;45417;-74
2022/09/10 10:25:01;;;;;;;;;3.75;2.00;;;;;21.36;76.02;156451.53;5010330;27;45363;-75
2022/09/10 10:27:31;;;;;;;;;2.00;2.00;;;;;21.41;76.83;156463.53;5013820;27;45390;-74
2022/09/10 10:30:02;;;;;;;;;3.50;2.00;;;;;21.43;78.16;156468.81;4998373;27;47097;-80
2022/09/10 10:32:43;;;;;;;;;5.00;2.00;;;;;21.48;78.91;156482.09;4997794;28;45559;-75
2022/09/10 10:35:22;;;;;;;;;1.00;1.00;;;;;21.47;79.49;156480.78;4987626;27;45743;-74
2022/09/10 10:37:47;;;;;;;;;2.00;2.00;;;;;21.47;79.59;156480.78;4996356;27;45496;-77
2022/09/10 10:40:32;;;;;;;;;4.25;3.00;;;;;21.30;79.07;156435.59;4998480;27;46287;-79
2022/09/10 10:43:30;;;;;;;;;4.00;2.33;;;;;21.45;78.99;156474.13;4980563;27;45557;-76
2022/09/10 10:46:03;;;;;;;;;3.00;3.00;;;;;21.45;79.95;156474.13;4914142;28;45576;-78
2022/09/10 10:49:05;;;;;;;;;4.00;2.25;;;;;21.45;79.48;156475.47;4914052;28;46050;-76
2022/09/10 10:51:30;;;;;;;;;3.00;2.00;;;;;21.48;79.99;156483.41;4910263;28;45350;-73
2022/09/10 10:54:05;;;;;;;;;4.75;3.25;;;;;21.54;80.40;156496.66;4915532;28;45878;-78
2022/09/10 10:56:41;;;;;;;;;2.00;2.00;;;;;21.62;80.10;156519.22;4904659;28;45650;-76
2022/09/10 10:59:48;;;;;;;;;3.00;3.00;;;;;21.67;78.71;156532.47;4915504;28;45723;-75
2022/09/10 11:02:28;;;;;;;;;1.67;1.67;;;;;21.72;79.51;156544.41;4893469;29;45496;-75
2022/09/10 11:04:57;;;;;;;;;2.67;1.00;;;;;21.77;78.68;156557.66;4960512;28;45474;-76
2022/09/10 11:07:38;;;;;;;;;2.00;2.00;;;;;21.67;78.03;156532.47;4894481;28;45515;-75
2022/09/10 11:10:03;;;;;;;;;3.00;2.00;;;;;21.80;77.95;156564.34;4893984;28;45535;-74
2022/09/10 11:12:34;;;;;;;;;1.67;1.67;;;;;21.77;78.06;156556.34;4893969;28;46258;-74
2022/09/10 11:15:08;;;;;;;;;2.00;2.00;;;;;21.82;79.03;156569.59;4878878;28;45409;-75
2022/09/10 11:17:46;;;;;;;;;2.67;2.67;;;;;21.83;78.14;156572.28;4899538;28;45483;-78
2022/09/10 11:20:37;;;;;;;;;2.00;2.00;;;;;21.81;78.15;156568.28;4892609;28;45614;-76
2022/09/10 11:23:24;;;;;;;;;3.67;3.67;;;;;21.91;77.72;156594.84;4949542;28;46121;-78
2022/09/10 11:26:02;;;;;;;;;2.00;2.00;;;;;21.97;77.72;156608.09;4957712;28;46044;-79
2022/09/10 11:28:37;;;;;;;;;1.00;1.00;;;;;22.00;77.63;156617.38;4972865;28;45343;-75
2022/09/10 11:31:34;;;;;;;;;2.00;2.00;;;;;22.05;76.93;156629.31;4979462;28;45910;-72
2022/09/10 11:34:09;;;;;;;;;2.00;1.25;;;;;22.06;76.73;156632.00;4970652;28;46042;-72
2022/09/10 11:36:38;;;;;;;;;1.25;1.25;;;;;22.19;76.64;156665.13;4957505;28;45551;-72
2022/09/10 11:39:28;;;;;;;;;2.00;2.00;;;;;22.29;76.53;156691.75;4995494;27;45696;-70
2022/09/10 11:41:57;;;;;;;;;2.00;2.00;;;;;22.27;76.18;156686.44;4997104;27;45548;-73